createdAt,value
2018-07-17T00:01:13.146Z,15.59
2018-07-17T00:03:42.160Z,15.56
2018-07-17T00:06:10.861Z,15.52
2018-07-17T00:08:39.514Z,15.48
2018-07-17T00:11:08.231Z,15.36
2018-07-17T00:13:37.406Z,15.28
2018-07-17T00:16:06.687Z,15.20
2018-07-17T00:18:35.530Z,15.19
2018-07-17T00:21:04.220Z,15.19
2018-07-17T00:23:32.816Z,15.20
2018-07-17T00:26:01.640Z,15.25
2018-07-17T00:28:30.545Z,15.23
2018-07-17T00:31:00.023Z,15.22
2018-07-17T00:33:29.446Z,15.15
2018-07-17T00:35:58.397Z,15.05
2018-07-17T00:38:26.976Z,14.96
2018-07-17T00:40:56.008Z,14.89
2018-07-17T00:43:25.575Z,14.95
2018-07-17T00:45:54.196Z,14.94
2018-07-17T00:48:23.546Z,14.94
2018-07-17T00:50:52.327Z,14.95
2018-07-17T00:53:21.602Z,14.92
2018-07-17T00:55:50.286Z,14.91
2018-07-17T00:58:19.058Z,14.86
2018-07-17T01:00:46.805Z,14.68
2018-07-17T01:03:20.767Z,14.61
2018-07-17T01:05:54.735Z,14.60
2018-07-17T01:08:28.866Z,14.60
2018-07-17T01:11:02.956Z,14.61
2018-07-17T01:13:43.231Z,14.63
2018-07-17T01:16:11.972Z,14.63
2018-07-17T01:18:40.567Z,14.56
2018-07-17T01:21:09.316Z,14.51
2018-07-17T01:23:38.877Z,14.52
2018-07-17T01:26:07.526Z,14.48
2018-07-17T01:28:36.325Z,14.44
2018-07-17T01:31:05.568Z,14.46
2018-07-17T01:33:34.681Z,14.46
2018-07-17T01:36:04.266Z,14.38
2018-07-17T01:38:33.116Z,14.34
2018-07-17T01:41:01.736Z,14.30
2018-07-17T01:43:30.709Z,14.30
2018-07-17T01:45:59.750Z,14.29
2018-07-17T01:48:28.354Z,14.28
2018-07-17T01:50:57.181Z,14.24
2018-07-17T01:53:25.770Z,14.23
2018-07-17T01:55:54.837Z,14.26
2018-07-17T01:58:23.697Z,14.22
2018-07-17T02:00:52.393Z,14.16
2018-07-17T02:03:21.157Z,14.19
2018-07-17T02:05:49.780Z,14.20
2018-07-17T02:08:19.061Z,14.18
2018-07-17T02:10:47.898Z,14.16
2018-07-17T02:13:16.586Z,14.17
2018-07-17T02:15:45.453Z,14.12
2018-07-17T02:18:14.181Z,14.08
2018-07-17T02:20:43.593Z,14.07
2018-07-17T02:23:12.401Z,14.06
2018-07-17T02:25:42.212Z,13.99
2018-07-17T02:28:10.976Z,13.89
2018-07-17T02:30:39.773Z,13.85
2018-07-17T02:33:08.381Z,13.87
2018-07-17T02:35:38.161Z,13.87
2018-07-17T02:38:07.681Z,13.91
2018-07-17T02:40:36.598Z,13.90
2018-07-17T02:43:05.308Z,13.87
2018-07-17T02:45:34.141Z,13.81
2018-07-17T02:48:03.370Z,13.72
2018-07-17T02:50:32.011Z,13.74
2018-07-17T02:53:01.252Z,13.73
2018-07-17T02:55:30.030Z,13.72
2018-07-17T02:57:59.447Z,13.68
2018-07-17T03:00:28.231Z,13.68
2018-07-17T03:02:57.004Z,13.73
2018-07-17T03:05:26.052Z,13.73
2018-07-17T03:07:54.672Z,13.67
2018-07-17T03:10:23.612Z,13.62
2018-07-17T03:12:52.918Z,13.63
2018-07-17T03:15:21.795Z,13.55
2018-07-17T03:17:50.448Z,13.48
2018-07-17T03:20:19.774Z,13.46
2018-07-17T03:22:48.578Z,13.42
2018-07-17T03:25:17.293Z,13.38
2018-07-17T03:27:46.017Z,13.33
2018-07-17T03:30:14.864Z,13.37
2018-07-17T03:32:43.991Z,13.37
2018-07-17T03:35:12.772Z,13.38
2018-07-17T03:37:42.323Z,13.31
2018-07-17T03:40:11.176Z,13.25
2018-07-17T03:42:40.871Z,13.18
2018-07-17T03:45:09.818Z,13.16
2018-07-17T03:47:38.517Z,13.17
2018-07-17T03:50:07.409Z,13.24
2018-07-17T03:52:36.063Z,13.23
2018-07-17T03:55:04.873Z,13.20
2018-07-17T03:57:33.791Z,13.22
2018-07-17T04:00:05.418Z,13.20
2018-07-17T04:02:34.192Z,13.16
2018-07-17T04:05:03.401Z,13.15
2018-07-17T04:07:32.193Z,13.15
2018-07-17T04:10:00.852Z,13.21
2018-07-17T04:12:29.794Z,13.30
2018-07-17T04:14:58.577Z,13.36
2018-07-17T04:17:27.978Z,13.43
2018-07-17T04:19:56.827Z,13.52
2018-07-17T04:22:25.631Z,13.61
2018-07-17T04:24:54.381Z,13.71
2018-07-17T04:27:23.027Z,13.81
2018-07-17T04:29:52.110Z,13.97
2018-07-17T04:32:22.236Z,13.96
2018-07-17T04:34:51.056Z,14.05
2018-07-17T04:37:19.929Z,14.19
2018-07-17T04:39:48.613Z,14.35
2018-07-17T04:42:17.258Z,14.47
2018-07-17T04:44:46.011Z,14.65
2018-07-17T04:47:15.447Z,14.78
2018-07-17T04:49:44.031Z,14.97
2018-07-17T04:52:12.659Z,15.07
2018-07-17T04:54:41.370Z,15.20
2018-07-17T04:57:10.188Z,15.36
2018-07-17T04:59:39.423Z,15.50
2018-07-17T05:02:08.122Z,15.69
2018-07-17T05:04:37.612Z,15.88
2018-07-17T05:07:06.516Z,16.01
2018-07-17T05:09:35.753Z,16.19
2018-07-17T05:12:04.789Z,16.35
2018-07-17T05:14:33.494Z,16.46
2018-07-17T05:17:02.310Z,16.63
2018-07-17T05:19:31.051Z,16.76
2018-07-17T05:21:59.797Z,17.06
2018-07-17T05:24:29.052Z,17.44
2018-07-17T05:26:58.295Z,17.95
2018-07-17T05:29:27.605Z,18.61
2018-07-17T05:31:56.775Z,19.23
2018-07-17T05:34:25.517Z,19.92
2018-07-17T05:36:54.210Z,20.46
2018-07-17T05:39:24.017Z,20.86
2018-07-17T05:41:53.635Z,21.01
2018-07-17T05:44:22.520Z,21.28
2018-07-17T05:46:52.027Z,21.57
2018-07-17T05:49:21.542Z,21.86
2018-07-17T05:51:50.648Z,22.44
2018-07-17T05:54:19.835Z,22.92
2018-07-17T05:56:48.591Z,23.42
2018-07-17T05:59:17.251Z,23.73
2018-07-17T06:01:46.625Z,23.88
2018-07-17T06:04:15.750Z,24.01
2018-07-17T06:06:44.475Z,23.95
2018-07-17T06:09:13.808Z,24.18
2018-07-17T06:11:42.410Z,24.61
2018-07-17T06:14:11.550Z,24.99
2018-07-17T06:16:40.343Z,25.27
2018-07-17T06:19:09.298Z,25.51
2018-07-17T06:21:38.317Z,25.85
2018-07-17T06:24:07.502Z,26.44
2018-07-17T06:26:36.952Z,26.99
2018-07-17T06:29:05.866Z,27.12
2018-07-17T06:31:34.468Z,27.60
2018-07-17T06:34:03.373Z,27.32
2018-07-17T06:36:32.207Z,27.50
2018-07-17T06:39:00.873Z,27.81
2018-07-17T06:41:30.465Z,28.30
2018-07-17T06:43:59.321Z,28.35
2018-07-17T06:46:27.876Z,28.96
2018-07-17T06:48:56.748Z,29.81
2018-07-17T06:51:25.738Z,29.84
2018-07-17T06:53:55.441Z,30.00
2018-07-17T06:56:24.842Z,29.53
2018-07-17T06:58:53.604Z,29.52
2018-07-17T07:01:23.005Z,29.71
2018-07-17T07:03:51.748Z,30.72
2018-07-17T07:06:20.532Z,31.36
2018-07-17T07:08:49.478Z,31.64
2018-07-17T07:11:18.898Z,32.64
2018-07-17T07:13:47.638Z,32.52
2018-07-17T07:16:16.483Z,33.65
2018-07-17T07:18:45.251Z,33.98
2018-07-17T07:21:14.753Z,34.37
2018-07-17T07:23:44.882Z,34.63
2018-07-17T07:26:13.762Z,34.15
2018-07-17T07:28:42.562Z,35.02
2018-07-17T07:31:11.523Z,35.67
2018-07-17T07:33:40.663Z,35.73
2018-07-17T07:36:10.020Z,36.47
2018-07-17T07:38:39.384Z,36.15
2018-07-17T07:41:08.273Z,35.76
2018-07-17T07:43:37.743Z,35.77
2018-07-17T07:46:06.827Z,36.25
2018-07-17T07:48:35.549Z,36.41
2018-07-17T07:51:04.312Z,36.53
2018-07-17T07:53:32.892Z,35.36
2018-07-17T07:56:01.868Z,34.63
2018-07-17T07:58:30.644Z,36.37
2018-07-17T08:00:59.573Z,37.94
2018-07-17T08:03:28.251Z,38.41
2018-07-17T08:05:56.919Z,38.85
2018-07-17T08:08:25.704Z,39.14
2018-07-17T08:10:54.458Z,39.38
2018-07-17T08:13:23.368Z,40.04
2018-07-17T08:15:52.924Z,40.13
2018-07-17T08:18:21.947Z,41.34
2018-07-17T08:20:51.224Z,41.07
2018-07-17T08:23:21.870Z,39.84
2018-07-17T08:25:51.718Z,38.43
2018-07-17T08:28:20.455Z,37.17
2018-07-17T08:30:49.878Z,38.29
2018-07-17T08:33:19.158Z,38.96
2018-07-17T08:35:47.816Z,40.27
2018-07-17T08:38:16.716Z,41.60
2018-07-17T08:40:45.774Z,41.36
2018-07-17T08:43:14.669Z,42.31
2018-07-17T08:45:43.638Z,41.20
2018-07-17T08:48:12.425Z,42.19
2018-07-17T08:50:41.223Z,43.09
2018-07-17T08:53:10.089Z,43.10
2018-07-17T08:55:38.953Z,41.41
2018-07-17T08:58:07.592Z,40.87
2018-07-17T09:00:36.354Z,41.39
2018-07-17T09:03:04.953Z,42.32
2018-07-17T09:05:33.704Z,42.02
2018-07-17T09:08:02.568Z,44.00
2018-07-17T09:10:31.625Z,45.22
2018-07-17T09:13:00.447Z,45.33
2018-07-17T09:15:29.170Z,44.83
2018-07-17T09:17:58.149Z,43.34
2018-07-17T09:20:26.872Z,43.46
2018-07-17T09:22:55.870Z,44.16
2018-07-17T09:25:25.380Z,42.21
2018-07-17T09:27:54.253Z,42.44
2018-07-17T09:30:23.443Z,41.66
2018-07-17T09:32:52.803Z,42.76
2018-07-17T09:35:22.769Z,42.33
2018-07-17T09:37:51.429Z,42.62
2018-07-17T09:40:20.569Z,41.77
2018-07-17T09:42:49.289Z,42.55
2018-07-17T09:45:19.025Z,42.32
2018-07-17T09:47:47.723Z,43.76
2018-07-17T09:50:16.367Z,45.11
2018-07-17T09:52:45.133Z,46.44
2018-07-17T09:55:13.742Z,47.46
2018-07-17T09:57:42.598Z,46.33
2018-07-17T10:00:15.427Z,46.09
2018-07-17T10:02:44.281Z,45.57
2018-07-17T10:05:13.313Z,42.92
2018-07-17T10:07:41.865Z,42.56
2018-07-17T10:10:10.896Z,41.20
2018-07-17T10:12:39.787Z,41.04
2018-07-17T10:15:08.540Z,39.46
2018-07-17T10:17:37.435Z,38.04
2018-07-17T10:20:06.236Z,39.18
2018-07-17T10:22:34.893Z,42.62
2018-07-17T10:25:03.533Z,43.81
2018-07-17T10:27:32.729Z,45.50
2018-07-17T10:30:01.515Z,46.18
2018-07-17T10:32:30.217Z,46.38
2018-07-17T10:34:59.098Z,46.79
2018-07-17T10:37:27.821Z,45.58
2018-07-17T10:39:56.563Z,43.73
2018-07-17T10:42:25.264Z,40.79
2018-07-17T10:44:54.273Z,38.82
2018-07-17T10:47:23.778Z,37.68
2018-07-17T10:49:52.736Z,36.65
2018-07-17T10:52:21.594Z,36.05
2018-07-17T10:54:50.251Z,35.27
2018-07-17T10:57:19.321Z,35.06
2018-07-17T10:59:48.537Z,33.52
2018-07-17T11:02:17.384Z,32.27
2018-07-17T11:04:46.181Z,31.52
2018-07-17T11:07:18.385Z,30.99
2018-07-17T11:09:47.040Z,29.41
2018-07-17T11:12:15.763Z,28.96
2018-07-17T11:14:45.124Z,28.39
2018-07-17T11:17:14.031Z,28.10
2018-07-17T11:19:43.604Z,28.37
2018-07-17T11:22:12.175Z,28.55
2018-07-17T11:24:40.809Z,28.59
2018-07-17T11:27:10.009Z,29.07
2018-07-17T11:29:38.675Z,29.56
2018-07-17T11:32:07.550Z,30.02
2018-07-17T11:34:36.890Z,30.13
2018-07-17T11:37:05.979Z,30.38
2018-07-17T11:39:34.896Z,30.72
2018-07-17T11:42:04.357Z,30.89
2018-07-17T11:44:33.182Z,30.49
2018-07-17T11:47:01.881Z,30.95
2018-07-17T11:49:31.341Z,30.86
2018-07-17T11:52:00.373Z,30.79
2018-07-17T11:54:29.321Z,30.92
2018-07-17T11:56:57.939Z,31.09
2018-07-17T11:59:26.861Z,30.88
2018-07-17T12:01:55.685Z,30.44
2018-07-17T12:04:24.326Z,30.51
2018-07-17T12:06:53.955Z,30.57
2018-07-17T12:09:22.958Z,30.69
2018-07-17T12:11:52.144Z,30.81
2018-07-17T12:14:21.067Z,31.07
2018-07-17T12:16:49.752Z,31.32
2018-07-17T12:19:18.525Z,31.76
2018-07-17T12:21:48.072Z,32.06
2018-07-17T12:24:16.982Z,32.33
2018-07-17T12:26:45.777Z,32.49
2018-07-17T12:29:14.694Z,31.87
2018-07-17T12:31:44.180Z,31.45
2018-07-17T12:34:13.033Z,31.15
2018-07-17T12:36:41.943Z,30.69
2018-07-17T12:39:12.244Z,31.08
2018-07-17T12:41:40.984Z,31.44
2018-07-17T12:44:10.084Z,31.79
2018-07-17T12:46:39.029Z,31.98
2018-07-17T12:49:07.924Z,32.19
2018-07-17T12:51:36.813Z,31.90
2018-07-17T12:54:05.884Z,31.62
2018-07-17T12:56:34.510Z,31.98
2018-07-17T12:59:03.478Z,32.00
2018-07-17T13:01:32.238Z,32.24
2018-07-17T13:04:01.126Z,32.36
2018-07-17T13:06:30.376Z,32.19
2018-07-17T13:08:59.359Z,32.12
2018-07-17T13:11:28.230Z,32.28
2018-07-17T13:13:57.895Z,32.15
2018-07-17T13:16:27.236Z,31.89
2018-07-17T13:18:56.199Z,31.92
2018-07-17T13:21:24.897Z,31.93
2018-07-17T13:23:53.744Z,32.17
2018-07-17T13:26:22.636Z,32.25
2018-07-17T13:28:51.779Z,32.42
2018-07-17T13:31:20.819Z,32.49
2018-07-17T13:33:49.645Z,32.42
2018-07-17T13:36:18.905Z,32.12
2018-07-17T13:38:48.069Z,31.93
2018-07-17T13:41:17.467Z,32.00
2018-07-17T13:43:46.395Z,32.24
2018-07-17T13:46:15.181Z,32.13
2018-07-17T13:48:44.100Z,32.08
2018-07-17T13:51:12.865Z,32.25
2018-07-17T13:53:42.605Z,32.09
2018-07-17T13:56:11.678Z,31.77
2018-07-17T13:58:40.570Z,31.36
2018-07-17T14:01:09.404Z,31.19
2018-07-17T14:03:38.634Z,30.88
2018-07-17T14:06:07.681Z,30.99
2018-07-17T14:08:36.480Z,30.91
2018-07-17T14:11:05.375Z,30.81
2018-07-17T14:13:34.504Z,30.43
2018-07-17T14:16:03.371Z,30.08
2018-07-17T14:18:32.819Z,29.85
2018-07-17T14:21:01.657Z,29.55
2018-07-17T14:23:30.345Z,28.63
2018-07-17T14:25:59.507Z,28.10
2018-07-17T14:28:28.878Z,27.69
2018-07-17T14:30:58.018Z,26.82
2018-07-17T14:33:27.149Z,25.90
2018-07-17T14:35:56.526Z,25.86
2018-07-17T14:38:25.125Z,25.36
2018-07-17T14:40:54.880Z,25.59
2018-07-17T14:43:24.302Z,25.91
2018-07-17T14:45:53.220Z,26.10
2018-07-17T14:48:22.104Z,26.27
2018-07-17T14:50:50.828Z,26.22
2018-07-17T14:53:19.907Z,25.93
2018-07-17T14:55:49.140Z,25.63
2018-07-17T14:58:17.918Z,25.21
2018-07-17T15:00:46.686Z,24.98
2018-07-17T15:03:15.418Z,24.63
2018-07-17T15:05:44.157Z,24.29
2018-07-17T15:08:13.290Z,24.16
2018-07-17T15:10:42.374Z,24.08
2018-07-17T15:13:11.393Z,24.12
2018-07-17T15:15:40.422Z,24.18
2018-07-17T15:18:09.423Z,24.35
2018-07-17T15:20:38.362Z,24.76
2018-07-17T15:23:08.101Z,25.31
2018-07-17T15:25:36.805Z,25.84
2018-07-17T15:28:06.160Z,26.21
2018-07-17T15:30:35.393Z,26.50
2018-07-17T15:33:04.107Z,26.63
2018-07-17T15:35:33.753Z,26.61
2018-07-17T15:38:02.873Z,26.59
2018-07-17T15:40:32.165Z,26.53
2018-07-17T15:43:01.086Z,26.46
2018-07-17T15:45:30.800Z,26.53
2018-07-17T15:47:59.653Z,26.54
2018-07-17T15:50:28.262Z,26.49
2018-07-17T15:52:57.291Z,26.45
2018-07-17T15:55:26.037Z,26.46
2018-07-17T15:57:54.981Z,26.51
2018-07-17T16:00:24.023Z,26.66
2018-07-17T16:02:52.872Z,26.62
2018-07-17T16:05:22.361Z,26.52
2018-07-17T16:07:51.615Z,26.42
2018-07-17T16:10:20.486Z,26.12
2018-07-17T16:12:49.263Z,25.92
2018-07-17T16:15:18.487Z,25.83
2018-07-17T16:17:47.166Z,25.71
2018-07-17T16:20:15.834Z,25.53
2018-07-17T16:22:44.666Z,25.50
2018-07-17T16:25:13.366Z,25.43
2018-07-17T16:27:42.226Z,25.29
2018-07-17T16:30:10.992Z,25.31
2018-07-17T16:32:39.957Z,25.34
2018-07-17T16:35:08.875Z,25.38
2018-07-17T16:37:37.652Z,25.43
2018-07-17T16:40:06.681Z,25.45
2018-07-17T16:42:36.343Z,25.45
2018-07-17T16:45:05.156Z,25.45
2018-07-17T16:47:34.041Z,25.45
2018-07-17T16:50:03.936Z,25.43
2018-07-17T16:52:32.806Z,25.41
2018-07-17T16:55:02.202Z,25.36
2018-07-17T16:57:31.558Z,25.34
2018-07-17T17:00:00.422Z,25.34
2018-07-17T17:02:29.282Z,25.33
2018-07-17T17:04:58.906Z,25.32
2018-07-17T17:07:27.968Z,25.29
2018-07-17T17:09:57.346Z,25.28
2018-07-17T17:12:26.446Z,25.27
2018-07-17T17:14:56.036Z,25.24
2018-07-17T17:17:25.103Z,25.21
2018-07-17T17:19:53.894Z,25.19
2018-07-17T17:22:23.453Z,25.15
2018-07-17T17:24:52.712Z,25.08
2018-07-17T17:27:21.490Z,25.03
2018-07-17T17:29:50.214Z,24.98
2018-07-17T17:32:19.084Z,24.95
2018-07-17T17:34:48.613Z,24.93
2018-07-17T17:37:17.878Z,24.96
2018-07-17T17:39:47.221Z,24.87
2018-07-17T17:42:16.493Z,24.84
2018-07-17T17:44:45.483Z,24.82
2018-07-17T17:47:14.894Z,24.80
2018-07-17T17:49:43.928Z,24.70
2018-07-17T17:52:13.196Z,24.60
2018-07-17T17:54:42.619Z,24.53
2018-07-17T17:57:11.894Z,24.38
2018-07-17T17:59:40.717Z,24.20
2018-07-17T18:02:10.144Z,24.08
2018-07-17T18:04:38.902Z,23.91
2018-07-17T18:07:07.666Z,23.91
2018-07-17T18:09:36.337Z,23.72
2018-07-17T18:12:05.392Z,23.49
2018-07-17T18:14:34.108Z,23.46
2018-07-17T18:17:03.198Z,23.32
2018-07-17T18:19:32.472Z,23.21
2018-07-17T18:22:01.426Z,23.09
2018-07-17T18:24:30.322Z,23.10
2018-07-17T18:26:59.386Z,23.12
2018-07-17T18:29:28.232Z,23.13
2018-07-17T18:31:56.987Z,23.21
2018-07-17T18:34:26.076Z,23.25
2018-07-17T18:36:54.872Z,23.35
2018-07-17T18:39:23.567Z,23.40
2018-07-17T18:41:53.051Z,23.43
2018-07-17T18:44:22.183Z,23.47
2018-07-17T18:46:51.111Z,23.41
2018-07-17T18:49:20.342Z,23.30
2018-07-17T18:51:49.473Z,23.22
2018-07-17T18:54:18.837Z,23.07
2018-07-17T18:56:48.109Z,22.95
2018-07-17T18:59:17.837Z,22.88
2018-07-17T19:01:46.977Z,22.78
2018-07-17T19:04:16.030Z,22.65
2018-07-17T19:06:45.021Z,22.57
2018-07-17T19:09:14.263Z,22.49
2018-07-17T19:11:43.327Z,22.44
2018-07-17T19:14:12.427Z,22.31
2018-07-17T19:16:42.014Z,22.27
2018-07-17T19:19:11.116Z,22.21
2018-07-17T19:21:40.266Z,22.12
2018-07-17T19:24:09.207Z,22.05
2018-07-17T19:26:38.027Z,21.97
2018-07-17T19:29:08.490Z,21.88
2018-07-17T19:31:37.832Z,21.80
2018-07-17T19:34:06.620Z,21.70
2018-07-17T19:36:35.654Z,21.61
2018-07-17T19:39:07.162Z,21.52
2018-07-17T19:41:35.996Z,21.38
2018-07-17T19:44:04.850Z,21.21
2018-07-17T19:46:33.653Z,21.11
2018-07-17T19:49:02.567Z,21.04
2018-07-17T19:51:31.451Z,20.99
2018-07-17T19:54:00.244Z,20.95
2018-07-17T19:56:29.415Z,20.86
2018-07-17T19:58:58.842Z,20.72
2018-07-17T20:01:27.559Z,20.64
2018-07-17T20:03:57.332Z,20.57
2018-07-17T20:06:26.295Z,20.51
2018-07-17T20:08:55.817Z,20.44
2018-07-17T20:11:24.798Z,20.39
2018-07-17T20:13:53.922Z,20.39
2018-07-17T20:16:23.223Z,20.37
2018-07-17T20:18:51.951Z,20.30
2018-07-17T20:21:21.237Z,20.17
2018-07-17T20:23:50.792Z,19.88
2018-07-17T20:26:20.004Z,19.84
2018-07-17T20:28:49.140Z,19.71
2018-07-17T20:31:18.499Z,19.73
2018-07-17T20:33:47.900Z,19.69
2018-07-17T20:36:16.895Z,19.72
2018-07-17T20:38:46.547Z,19.61
2018-07-17T20:41:15.341Z,19.55
2018-07-17T20:43:44.125Z,19.57
2018-07-17T20:46:13.044Z,19.54
2018-07-17T20:48:41.964Z,19.54
2018-07-17T20:51:11.581Z,19.49
2018-07-17T20:53:40.488Z,19.42
2018-07-17T20:56:09.797Z,19.39
2018-07-17T20:58:38.731Z,19.39
2018-07-17T21:01:07.878Z,19.33
2018-07-17T21:03:37.553Z,19.15
2018-07-17T21:06:06.549Z,19.06
2018-07-17T21:08:35.552Z,18.97
2018-07-17T21:11:04.990Z,18.96
2018-07-17T21:13:34.431Z,18.91
2018-07-17T21:16:04.259Z,18.93
2018-07-17T21:18:33.785Z,19.04
2018-07-17T21:21:03.075Z,19.01
2018-07-17T21:23:33.332Z,18.99
2018-07-17T21:26:02.373Z,18.99
2018-07-17T21:28:31.352Z,18.95
2018-07-17T21:31:00.472Z,18.87
2018-07-17T21:33:29.973Z,18.84
2018-07-17T21:35:58.760Z,18.78
2018-07-17T21:38:27.397Z,18.76
2018-07-17T21:40:56.778Z,18.73
2018-07-17T21:43:25.951Z,18.62
2018-07-17T21:45:54.733Z,18.46
2018-07-17T21:48:23.613Z,18.35
2018-07-17T21:50:52.952Z,18.29
2018-07-17T21:53:21.787Z,18.27
2018-07-17T21:55:50.978Z,18.12
2018-07-17T21:58:20.432Z,18.02
2018-07-17T22:00:50.021Z,17.96
2018-07-17T22:03:18.677Z,17.97
2018-07-17T22:05:47.573Z,18.01
2018-07-17T22:08:17.168Z,18.10
2018-07-17T22:10:46.097Z,18.15
2018-07-17T22:13:14.843Z,18.20
2018-07-17T22:15:43.747Z,18.25
2018-07-17T22:18:13.177Z,18.30
2018-07-17T22:20:41.915Z,18.35
2018-07-17T22:23:11.838Z,18.34
2018-07-17T22:25:40.706Z,18.30
2018-07-17T22:28:09.591Z,18.23
2018-07-17T22:30:39.178Z,18.14
2018-07-17T22:33:08.327Z,18.03
2018-07-17T22:35:37.478Z,17.94
2018-07-17T22:38:06.514Z,17.88
2018-07-17T22:40:35.934Z,17.77
2018-07-17T22:43:05.128Z,17.71
2018-07-17T22:45:34.099Z,17.67
2018-07-17T22:48:02.743Z,17.67
2018-07-17T22:50:31.388Z,17.69
2018-07-17T22:53:00.228Z,17.72
2018-07-17T22:55:28.972Z,17.77
2018-07-17T22:57:57.686Z,17.86
2018-07-17T23:00:26.781Z,17.92
2018-07-17T23:02:55.511Z,17.88
2018-07-17T23:05:24.327Z,17.87
2018-07-17T23:07:53.218Z,17.90
2018-07-17T23:10:22.007Z,17.95
2018-07-17T23:12:51.078Z,17.98
2018-07-17T23:15:19.731Z,18.00
2018-07-17T23:17:48.468Z,17.97
2018-07-17T23:20:17.362Z,17.94
2018-07-17T23:22:57.151Z,17.96
2018-07-17T23:25:27.024Z,17.97
2018-07-17T23:27:56.418Z,18.00
2018-07-17T23:30:25.347Z,18.00
2018-07-17T23:32:54.247Z,17.92
2018-07-17T23:35:23.935Z,17.85
2018-07-17T23:37:53.964Z,17.76
2018-07-17T23:40:23.194Z,17.70
2018-07-17T23:42:52.598Z,17.67
2018-07-17T23:45:21.448Z,17.61
2018-07-17T23:47:51.184Z,17.47
2018-07-17T23:50:20.050Z,17.41
2018-07-17T23:52:48.722Z,17.16
2018-07-17T23:55:17.569Z,16.99
2018-07-17T23:57:46.367Z,16.94
